Tacoma/McChord AFB, Washington
Current Conditions -  °F | °C
As of 11:58 AM on Friday 21 Nov 2014 (Local Time) from KTCM Reporting Station
Light Rain Light Rain  
Wind Chill: 51°   Ceiling: 6000
Heat Index: 51°   Visibility: 7mi
Dew Point: 50°   Wind: 12mph
Humidity: 99%   Direction: 140°SE
Pressure: 29.6"   Gusts: NA
Location:  47.15°N, 122.48°W
Report Text: KTCM 211958Z AUTO 14010KT 7SM -RA FEW039 OVC060 10/10 A2960 RMK AO2 CIG 045 RWY34 SLP028 P0004 T01030102 $
Loading
Personal Weather Stations






























Interactive Weather Map New forecast layout! Learn more

10-Day Weather Forecast

Advertisements
Track Severe Weather on mobile